Latest Weather Observations for Toowoomba

IDQ60801

Issued at 2:12 pm EST Thursday 25 April 2019 (issued every 10 minutes, with the page automatically refreshed every 10 minutes)

About weather observations | Map of weather stations | Latest weather observations for QLD | Other Formats
Station Details ID: 041529 Name: TOOWOOMBA AIRPORT Lat: -27.54 Lon: 151.91 Height: 640.9 m
Data from the previous 72 hours. | See also: Recent months at Toowoomba
Date/Time
EST
Temp
°C
App
Temp
°C
Dew
Point
°C
Rel
Hum
%
Delta-T
°C
Wind Press
QNH
hPa
Press
MSL
hPa
Rain since
9am
mm
Dir  Spd
km/h
Gust
km/h
Spd
kts
Gust
kts
25/02:00pm 22.2 19.3 13.0 56 5.4 E 20 28 11 15 1020.5 1018.1 0.0
25/01:30pm 21.9 19.1 13.3 58 5.1 ENE 20 28 11 15 1020.8 1018.4 0.0
25/01:00pm 21.1 17.8 12.8 59 4.8 E 22 28 12 15 1021.2 1018.8 0.0
25/12:30pm 21.2 18.5 14.6 66 4.0 E 22 30 12 16 1021.5 1019.1 0.0
25/12:00pm 21.2 18.6 14.8 67 3.9 E 22 30 12 16 1022.0 1019.6 0.0
25/11:30am 20.5 17.8 14.6 69 3.5 E 22 28 12 15 1022.7 1020.3 0.0
25/11:00am 19.2 15.7 14.5 74 2.8 E 26 33 14 18 1023.0 1020.7 0.0
25/10:30am 19.7 15.9 14.7 73 3.0 E 28 37 15 20 1023.0 1020.7 0.0
25/10:00am 18.3 14.3 14.2 77 2.4 E 28 37 15 20 1023.2 1020.9 0.0
25/09:30am 18.7 15.0 15.0 79 2.2 E 28 35 15 19 1023.6 1021.2 0.0
25/09:00am 17.7 13.7 14.2 80 2.1 E 28 37 15 20 1023.7 1021.3 0.0
25/08:30am 16.8 12.9 13.3 80 2.0 E 26 33 14 18 1023.8 1021.4 0.0
25/08:00am 17.0 13.5 13.5 80 2.0 E 24 30 13 16 1023.2 1020.9 0.0
25/07:30am 15.9 12.9 13.6 86 1.3 E 22 28 12 15 1023.0 1020.7 0.0
25/07:00am 15.3 12.2 13.3 88 1.1 E 22 28 12 15 1022.6 1020.2 0.0
25/06:30am 15.1 12.0 13.3 89 1.0 E 22 26 12 14 1022.3 1019.9 0.0
25/06:00am 15.3 11.8 13.3 88 1.1 E 24 28 13 15 1022.3 1019.9 0.0
25/05:30am 15.4 12.2 13.2 87 1.3 E 22 28 12 15 1022.2 1019.8 0.0
25/05:00am 15.3 11.7 13.2 87 1.2 E 24 30 13 16 1022.1 1019.7 0.0
25/04:30am 15.5 11.6 13.3 87 1.3 E 26 32 14 17 1021.9 1019.5 0.0
25/04:00am 15.5 11.7 13.5 88 1.2 E 26 30 14 16 1022.0 1019.6 0.0
25/03:30am 15.4 11.6 13.6 89 1.0 ESE 26 32 14 17 1021.9 1019.5 0.0
25/03:00am 15.3 11.6 13.8 91 0.9 E 26 32 14 17 1022.2 1019.8 0.0
25/02:30am 15.5 11.8 13.9 90 0.9 E 26 32 14 17 1022.3 1019.9 0.0
25/02:00am 15.5 11.4 13.7 89 1.0 E 28 35 15 19 1022.5 1020.1 0.0
25/01:30am 15.6 11.5 13.8 89 1.0 ESE 28 33 15 18 1022.7 1020.3 0.0
25/01:00am 15.6 10.7 13.8 89 1.0 ESE 32 39 17 21 1022.7 1020.3 0.0
25/12:30am 16.0 11.1 13.8 87 1.3 E 32 39 17 21 1023.0 1020.7 0.0
25/12:00am 16.0 11.2 14.0 88 1.2 ESE 32 39 17 21 1023.2 1020.9 0.0
 
Date/Time
EST
Temp
°C
App
Temp
°C
Dew
Point
°C
Rel
Hum
%
Delta-T
°C
Wind Press
QNH
hPa
Press
MSL
hPa
Rain since
9am
mm
Dir  Spd
km/h
Gust
km/h
Spd
kts
Gust
kts
24/11:30pm 16.0 11.7 14.4 90 0.9 E 30 35 16 19 1023.4 1021.1 0.0
24/11:00pm 16.1 11.4 14.3 89 1.1 E 32 39 17 21 1023.3 1021.0 0.0
24/10:30pm 16.2 12.5 14.0 87 1.3 E 26 32 14 17 1024.2 1021.8 0.0
24/10:00pm 16.3 12.6 14.0 86 1.3 E 26 33 14 18 1023.8 1021.4 0.0
24/09:30pm 16.5 13.3 14.2 86 1.4 E 24 30 13 16 1024.3 1021.9 0.0
24/09:00pm 16.4 13.1 14.1 86 1.3 ENE 24 32 13 17 1024.6 1022.3 0.0
24/08:30pm 16.7 12.7 14.2 85 1.5 ENE 28 32 15 17 1024.4 1022.1 0.0
24/08:00pm 16.8 12.8 14.1 84 1.6 E 28 35 15 19 1024.2 1021.8 0.0
24/07:30pm 17.0 14.1 13.9 82 1.8 E 22 28 12 15 1023.9 1021.5 0.0
24/07:00pm 17.4 14.0 13.7 79 2.2 E 24 32 13 17 1023.7 1021.3 0.0
24/06:30pm 17.6 14.6 13.7 78 2.3 E 22 26 12 14 1023.8 1021.4 0.0
24/06:00pm 18.1 15.4 13.6 75 2.6 E 20 26 11 14 1023.7 1021.3 0.0
24/05:30pm 18.5 16.1 13.8 74 2.8 E 19 24 10 13 1023.2 1020.9 0.0
24/05:00pm 19.1 16.7 13.9 72 3.1 E 19 28 10 15 1023.2 1020.9 0.0
24/04:30pm 19.6 18.0 14.0 70 3.3 E 15 22 8 12 1022.8 1020.4 0.0
24/04:00pm 19.9 17.3 13.8 68 3.6 E 20 28 11 15 1022.6 1020.2 0.0
24/03:30pm 20.1 16.7 13.6 66 3.8 E 24 32 13 17 1022.6 1020.2 0.0
24/03:00pm 20.4 16.6 13.6 65 4.0 E 26 35 14 19 1022.6 1020.2 0.0
24/02:30pm 20.7 16.8 13.4 63 4.3 E 26 37 14 20 1022.5 1020.1 0.0
24/02:00pm 20.7 17.1 13.2 62 4.4 E 24 37 13 20 1022.4 1020.0 0.0
24/01:30pm 21.1 17.5 13.0 60 4.8 E 24 33 13 18 1022.8 1020.4 0.0
24/01:00pm 21.4 18.4 13.6 61 4.6 E 22 33 12 18 1023.0 1020.7 0.0
24/12:30pm 20.1 15.1 13.3 65 4.0 E 32 43 17 23 1023.4 1021.1 0.0
24/12:00pm 20.0 14.7 13.0 64 4.1 E 33 43 18 23 1023.6 1021.2 0.0
24/11:30am 20.4 15.4 15.0 71 3.3 E 35 44 19 24 1023.8 1021.4 0.0
24/11:00am 18.7 13.5 14.6 77 2.4 E 35 44 19 24 1024.2 1021.8 0.0
24/10:30am 18.2 14.2 15.1 82 1.9 E 30 39 16 21 1024.5 1022.2 0.0
24/10:00am 17.7 13.0 14.8 83 1.7 E 33 44 18 24 1024.6 1022.3 0.0
24/09:42am 17.5 13.3 14.6 83 1.7 E 30 43 16 23 1024.8 1022.5 0.0
24/09:30am 17.4 12.8 14.5 83 1.7 E 32 43 17 23 1024.9 1022.6 0.0
24/09:00am 16.9 13.0 14.5 86 1.4 E 28 39 15 21 1025.0 1022.7 0.0
24/08:30am 16.7 13.9 14.3 86 1.4 E 22 32 12 17 1025.0 1022.7 0.0
24/08:00am 16.4 13.2 14.2 87 1.3 E 24 33 13 18 1025.0 1022.7 0.0
24/07:30am 16.1 12.5 14.3 89 1.1 ESE 26 37 14 20 1024.7 1022.4 0.0
24/07:00am 15.7 11.3 14.2 91 0.9 ESE 30 37 16 20 1024.2 1021.8 0.0
24/06:53am 15.7 11.7 14.2 91 0.9 ESE 28 35 15 19 1024.1 1021.7 0.0
24/06:30am 15.5 11.5 14.0 91 0.9 ESE 28 39 15 21 1024.0 1021.6 0.0
24/06:23am 15.5 11.8 14.0 91 0.9 ESE 26 37 14 20 1023.9 1021.5 0.0
24/06:13am 15.5 11.5 14.0 91 0.9 ESE 28 41 15 22 1023.9 1021.5 0.0
24/06:09am 15.4 11.0 14.1 92 0.8 ESE 30 41 16 22 1023.9 1021.5 0.0
24/06:00am 15.3 10.9 14.0 92 0.8 ESE 30 37 16 20 1023.7 1021.3 0.0
24/05:50am 15.3 11.3 14.2 93 0.6 ESE 28 39 15 21 1023.7 1021.3 0.0
24/05:30am 15.2 10.8 14.2 94 0.6 ESE 30 41 16 22 1023.4 1021.1 0.0
24/05:00am 15.0 11.0 14.2 95 0.5 ESE 28 43 15 23 1023.2 1020.9 0.0
24/04:30am 14.9 10.2 14.3 96 0.4 ESE 32 44 17 24 1022.8 1020.4 0.0
24/04:18am 15.0 10.4 14.5 97 0.3 E 32 50 17 27 1022.8 1020.4 0.0
24/04:00am 15.1 9.9 14.5 96 0.4 E 35 48 19 26 1022.7 1020.3 0.0
24/03:30am 15.1 10.0 14.9 99 0.1 E 35 46 19 25 1022.8 1020.4 0.0
24/03:24am 15.0 9.9 14.8 99 0.1 E 35 48 19 26 1022.7 1020.3 0.0
24/03:00am 15.1 10.0 14.9 99 0.1 E 35 48 19 26 1022.8 1020.4 0.0
24/02:30am 15.5 10.9 15.2 98 0.2 E 33 46 18 25 1022.8 1020.4 0.0
24/02:00am 15.7 10.6 14.9 95 0.5 E 35 44 19 24 1023.0 1020.7 0.0
24/01:38am 15.6 10.6 15.1 97 0.3 E 35 43 19 23 1023.3 1021.0 0.0
24/01:30am 15.6 10.5 14.8 95 0.5 E 35 48 19 26 1023.4 1021.1 0.0
24/01:20am 15.6 10.4 14.6 94 0.6 E 35 44 19 24 1023.4 1021.1 0.0
24/01:00am 15.7 10.5 14.6 93 0.6 E 35 46 19 25 1023.6 1021.2 0.0
24/12:40am 15.9 10.7 14.4 91 0.9 E 35 50 19 27 1023.8 1021.4 0.0
24/12:36am 15.8 10.5 14.3 91 0.9 E 35 46 19 25 1023.7 1021.3 0.0
24/12:30am 15.8 10.1 14.3 91 0.9 E 37 44 20 24 1023.7 1021.3 0.0
24/12:23am 15.7 10.0 14.1 90 0.9 E 37 46 20 25 1023.8 1021.4 0.0
24/12:00am 16.0 11.1 13.7 86 1.3 E 32 44 17 24 1023.9 1021.5 0.0
 
Date/Time
EST
Temp
°C
App
Temp
°C
Dew
Point
°C
Rel
Hum
%
Delta-T
°C
Wind Press
QNH
hPa
Press
MSL
hPa
Rain since
9am
mm
Dir  Spd
km/h
Gust
km/h
Spd
kts
Gust
kts
23/11:30pm 15.8 10.9 13.8 88 1.2 E 32 46 17 25 1024.1 1021.7 0.0
23/11:00pm 16.1 11.1 14.1 88 1.2 E 33 46 18 25 1024.4 1022.1 0.0
23/10:30pm 16.2 10.8 14.0 87 1.3 E 35 46 19 25 1024.8 1022.5 0.0
23/10:00pm 16.3 11.3 14.0 86 1.3 E 33 43 18 23 1025.0 1022.7 0.0
23/09:30pm 16.5 11.5 14.0 85 1.5 E 33 43 18 23 1024.8 1022.5 0.0
23/09:00pm 16.6 11.2 13.9 84 1.6 E 35 44 19 24 1024.9 1022.6 0.0
23/08:30pm 16.8 10.6 13.9 83 1.7 E 39 48 21 26 1024.9 1022.6 0.0
23/08:00pm 17.0 11.2 13.9 82 1.8 E 37 46 20 25 1024.9 1022.6 0.0
23/07:30pm 17.2 12.1 14.7 85 1.5 E 35 50 19 27 1024.7 1022.4 0.0
23/07:20pm 17.3 12.6 14.9 86 1.4 E 33 52 18 28 1024.7 1022.4 0.0
23/07:00pm 17.3 12.4 15.3 88 1.2 E 35 46 19 25 1024.6 1022.3 0.0
23/06:30pm 17.6 13.5 15.9 90 1.0 E 32 43 17 23 1024.3 1021.9 0.0
23/06:00pm 17.7 14.1 16.2 91 0.9 E 30 41 16 22 1024.1 1021.7 0.0
23/05:30pm 18.0 14.2 15.8 87 1.3 E 30 35 16 19 1023.8 1021.4 0.0
23/05:00pm 18.2 14.7 15.6 85 1.6 E 28 37 15 20 1024.0 1021.6 0.0
23/04:30pm 18.7 16.6 16.3 86 1.5 E 22 32 12 17 1023.9 1021.5 0.0
23/04:00pm 19.3 17.9 15.6 79 2.2 E 17 28 9 15 1023.8 1021.4 0.0
23/03:30pm 19.3 17.9 15.6 79 2.3 E 17 20 9 11 1023.8 1021.4 0.0
23/03:00pm 19.5 17.5 15.0 75 2.7 E 19 24 10 13 1023.8 1021.4 0.0
23/02:30pm 20.0 17.1 15.0 73 3.0 E 24 33 13 18 1023.9 1021.5 0.0
23/02:00pm 20.4 17.2 14.3 68 3.6 E 24 32 13 17 1024.0 1021.6 0.0
23/01:30pm 20.5 17.4 14.4 68 3.7 E 24 32 13 17 1024.2 1021.8 0.0
23/01:00pm 19.9 16.6 14.0 69 3.5 E 24 32 13 17 1024.5 1022.2 0.0
23/12:30pm 19.8 15.5 13.3 66 3.8 E 28 39 15 21 1024.9 1022.6 0.0
23/12:00pm 19.3 14.9 14.1 72 3.1 ESE 30 39 16 21 1025.3 1022.9 0.0
23/11:30am 19.4 14.9 13.8 70 3.3 E 30 39 16 21 1025.4 1023.0 0.0
23/11:00am 18.9 15.4 14.6 76 2.6 ESE 26 35 14 19 1026.0 1023.7 0.0
23/10:30am 18.7 13.4 14.2 75 2.7 E 35 46 19 25 1025.9 1023.6 0.0
23/10:00am 18.9 12.8 14.2 74 2.8 E 39 52 21 28 1025.6 1023.2 0.0
23/09:41am 18.7 12.2 14.0 74 2.8 E 41 59 22 32 1025.5 1023.1 0.0
23/09:30am 18.9 12.8 15.2 79 2.2 E 41 56 22 30 1025.5 1023.1 0.0
23/09:00am 18.0 13.1 15.3 84 1.6 ESE 35 44 19 24 1025.6 1023.2 2.0
23/08:30am 17.1 12.2 15.3 89 1.1 ESE 35 48 19 26 1025.5 1023.1 2.0
23/08:00am 16.6 11.0 15.5 93 0.7 ESE 39 50 21 27 1025.4 1023.0 2.0
23/07:30am 16.3 11.1 15.5 95 0.5 ESE 37 52 20 28 1025.0 1022.7 2.0
23/07:00am 16.1 11.4 15.8 98 0.2 ESE 35 44 19 24 1025.0 1022.7 2.0
23/06:48am 16.0 11.2 15.7 98 0.2 ESE 35 46 19 25 1024.8 1022.5 2.0
23/06:30am 15.9 11.7 15.7 99 0.1 ESE 32 44 17 24 1024.7 1022.4 2.0
23/06:00am 15.9 11.7 15.7 99 0.1 ESE 32 43 17 23 1024.4 1022.1 2.0
23/05:30am 15.9 12.5 15.7 99 0.1 ESE 28 33 15 18 1024.3 1021.9 2.0
23/05:00am 15.9 12.5 15.7 99 0.1 ESE 28 39 15 21 1024.0 1021.6 2.0
23/04:30am 15.9 12.5 15.7 99 0.1 ESE 28 37 15 20 1023.8 1021.4 2.0
23/04:00am 16.0 12.6 15.8 99 0.1 ESE 28 39 15 21 1023.6 1021.2 1.8
23/03:30am 16.1 12.7 15.9 99 0.1 ESE 28 39 15 21 1023.6 1021.2 1.8
23/03:00am 16.2 12.1 16.0 99 0.1 E 32 39 17 21 1023.2 1020.9 1.8
23/02:30am 16.1 12.7 15.9 99 0.1 ESE 28 35 15 19 1023.6 1021.2 1.8
23/02:07am 16.1 13.5 15.9 99 0.1 ESE 24 35 13 19 1023.9 1021.5 1.8
23/02:00am 16.1 13.5 15.9 99 0.1 ESE 24 33 13 18 1024.1 1021.7 1.8
23/01:30am 16.1 13.2 16.1 100 0.0 ESE 26 35 14 19 1024.1 1021.7 1.8
23/01:25am 16.0 13.4 16.0 100 0.0 ESE 24 33 13 18 1024.2 1021.8 1.8
23/01:15am 16.0 13.4 16.0 100 0.0 ESE 24 35 13 19 1024.4 1022.1 1.8
23/01:00am 15.9 13.3 15.9 100 0.0 ESE 24 33 13 18 1024.5 1022.2 1.6
23/12:30am 15.8 12.4 15.8 100 0.0 E 28 46 15 25 1024.8 1022.5 1.4
23/12:21am 15.7 12.3 15.7 100 0.0 ESE 28 46 15 25 1024.8 1022.5 1.2
23/12:00am 15.9 12.5 15.9 100 0.0 ESE 28 39 15 21 1024.8 1022.5 0.8
 
Date/Time
EST
Temp
°C
App
Temp
°C
Dew
Point
°C
Rel
Hum
%
Delta-T
°C
Wind Press
QNH
hPa
Press
MSL
hPa
Rain since
9am
mm
Dir  Spd
km/h
Gust
km/h
Spd
kts
Gust
kts
22/11:30pm 16.1 12.1 16.1 100 0.0 ESE 32 43 17 23 1024.9 1022.6 0.8
22/11:00pm 16.1 12.4 15.9 99 0.1 E 30 39 16 21 1024.9 1022.6 0.8
22/10:54pm 16.2 12.9 16.0 99 0.1 E 28 39 15 21 1025.0 1022.7 0.8
22/10:47pm 16.2 12.9 16.0 99 0.1 E 28 37 15 20 1024.9 1022.6 0.8
22/10:30pm 16.2 12.5 16.0 99 0.1 ESE 30 39 16 21 1024.8 1022.5 0.8
22/10:22pm 16.3 12.6 16.1 99 0.1 ESE 30 41 16 22 1024.8 1022.5 0.8
22/10:05pm 16.3 13.0 16.1 99 0.1 ESE 28 37 15 20 1024.8 1022.5 0.8
22/10:00pm 16.3 13.4 16.1 99 0.1 E 26 37 14 20 1024.8 1022.5 0.8
22/09:30pm 16.6 14.6 16.4 99 0.1 E 22 30 12 16 1024.9 1022.6 0.4
22/09:28pm 16.6 14.2 16.4 99 0.1 E 24 30 13 16 1024.9 1022.6 0.4
22/09:16pm 16.6 13.8 16.4 99 0.1 E 26 33 14 18 1024.9 1022.6 0.2
22/09:00pm 16.6 13.8 16.4 99 0.1 E 26 35 14 19 1024.9 1022.6 0.2
22/08:30pm 16.8 14.4 16.5 98 0.2 E 24 33 13 18 1024.7 1022.4 0.0
22/08:20pm 17.1 14.4 16.5 96 0.4 E 26 43 14 23 1024.8 1022.5 0.0
22/08:00pm 17.3 15.2 16.3 94 0.6 E 22 35 12 19 1024.9 1022.6 0.0
22/07:30pm 17.4 15.4 16.4 94 0.6 E 22 30 12 16 1024.5 1022.2 0.0
22/07:00pm 17.7 15.2 16.2 91 0.9 E 24 32 13 17 1024.0 1021.6 0.0
22/06:45pm 17.8 15.3 16.1 90 1.0 E 24 28 13 15 1023.8 1021.4 0.0
22/06:30pm 17.9 15.0 16.1 89 1.1 E 26 35 14 19 1023.4 1021.1 0.0
22/06:00pm 18.2 16.3 15.8 86 1.5 E 20 28 11 15 1023.6 1021.2 0.0
22/05:30pm 18.4 15.8 15.8 85 1.6 E 24 30 13 16 1023.2 1020.9 0.0
22/05:00pm 19.0 16.5 16.2 84 1.7 E 24 32 13 17 1022.7 1020.3 0.0
22/04:30pm 19.8 17.6 15.9 78 2.4 E 22 28 12 15 1022.8 1020.4 0.0
22/04:00pm 20.1 17.7 15.3 74 2.9 E 22 35 12 19 1022.5 1020.1 0.0
22/03:30pm 20.7 17.7 14.8 69 3.6 E 24 33 13 18 1022.2 1019.8 0.0
22/03:00pm 20.5 17.4 14.4 68 3.6 ESE 24 32 13 17 1022.3 1019.9 0.0
22/02:30pm 21.2 18.6 14.8 67 3.9 E 22 28 12 15 1022.3 1019.9 0.0

Other formats

Comma delimited format used in spreadsheet applications
http://www.bom.gov.au/fwo/IDQ60801/IDQ60801.95551.axf

JavaScript Object Notation format (JSON) in row-major order
http://www.bom.gov.au/fwo/IDQ60801/IDQ60801.95551.json

Data quality

Most of these data are generated automatically and are frequently updated. Quality checks on data are not normally performed. It is possible for incorrect values to appear. Refer to information at About Latest Weather Observations and please check the disclaimer before using these data.